createdAt,value
2018-09-15T00:00:44.551Z,6.07
2018-09-15T00:01:50.756Z,6.62
2018-09-15T00:02:57.008Z,5.70
2018-09-15T00:04:03.256Z,6.35
2018-09-15T00:05:09.466Z,6.35
2018-09-15T00:06:15.665Z,6.35
2018-09-15T00:07:21.894Z,6.30
2018-09-15T00:08:28.107Z,6.10
2018-09-15T00:09:34.358Z,5.20
2018-09-15T00:10:41.475Z,5.75
2018-09-15T00:11:48.350Z,5.35
2018-09-15T00:12:54.365Z,5.80
2018-09-15T00:14:00.620Z,5.40
2018-09-15T00:15:06.641Z,5.80
2018-09-15T00:16:12.868Z,5.40
2018-09-15T00:17:19.104Z,5.57
2018-09-15T00:18:24.968Z,5.65
2018-09-15T00:19:31.213Z,5.60
2018-09-15T00:20:37.430Z,5.25
2018-09-15T00:21:43.678Z,6.15
2018-09-15T00:22:49.930Z,5.90
2018-09-15T00:23:56.173Z,5.32
2018-09-15T00:25:02.384Z,5.70
2018-09-15T00:26:08.266Z,5.00
2018-09-15T00:27:14.486Z,5.35
2018-09-15T00:28:20.761Z,5.65
2018-09-15T00:29:26.985Z,5.35
2018-09-15T00:30:33.236Z,5.15
2018-09-15T00:31:39.462Z,5.03
2018-09-15T00:32:45.745Z,5.18
2018-09-15T00:33:51.998Z,4.72
2018-09-15T00:34:58.249Z,5.68
2018-09-15T00:36:04.475Z,6.20
2018-09-15T00:37:10.710Z,6.30
2018-09-15T00:38:16.956Z,6.40
2018-09-15T00:39:23.204Z,6.25
2018-09-15T00:40:29.429Z,7.50
2018-09-15T00:41:35.739Z,7.15
2018-09-15T00:42:42.134Z,7.70
2018-09-15T00:43:48.375Z,7.15
2018-09-15T00:44:54.591Z,7.68
2018-09-15T00:46:00.835Z,7.62
2018-09-15T00:47:06.711Z,7.20
2018-09-15T00:48:12.953Z,7.05
2018-09-15T00:49:19.218Z,9.80
2018-09-15T00:50:25.069Z,8.35
2018-09-15T00:51:31.289Z,8.55
2018-09-15T00:52:37.547Z,7.55
2018-09-15T00:53:43.778Z,7.45
2018-09-15T00:54:50.010Z,8.68
2018-09-15T00:55:56.244Z,8.60
2018-09-15T00:57:02.442Z,8.15
2018-09-15T00:58:08.680Z,6.95
2018-09-15T00:59:14.913Z,7.07
2018-09-15T01:00:20.901Z,7.00
2018-09-15T01:01:26.109Z,7.85
2018-09-15T01:02:32.331Z,7.32
2018-09-15T01:03:38.573Z,8.45
2018-09-15T01:04:44.849Z,8.68
2018-09-15T01:05:51.110Z,8.82
2018-09-15T01:06:57.365Z,7.47
2018-09-15T01:08:03.599Z,7.20
2018-09-15T01:09:09.495Z,7.70
2018-09-15T01:10:15.562Z,7.85
2018-09-15T01:11:21.780Z,8.20
2018-09-15T01:12:28.011Z,7.60
2018-09-15T01:13:34.272Z,7.65
2018-09-15T01:14:40.476Z,7.55
2018-09-15T01:15:46.734Z,7.55
2018-09-15T01:16:52.963Z,7.35
2018-09-15T01:17:59.195Z,8.32
2018-09-15T01:19:04.757Z,8.43
2018-09-15T01:20:10.813Z,7.78
2018-09-15T01:21:16.874Z,8.15
2018-09-15T01:22:22.884Z,8.18
2018-09-15T01:23:29.119Z,8.73
2018-09-15T01:24:35.404Z,8.00
2018-09-15T01:25:41.349Z,8.50
2018-09-15T01:26:47.555Z,8.65
2018-09-15T01:27:53.799Z,10.00
2018-09-15T01:28:59.789Z,10.88
2018-09-15T01:30:05.051Z,8.65
2018-09-15T01:31:11.312Z,9.73
2018-09-15T01:32:17.537Z,8.80
2018-09-15T01:33:23.772Z,9.63
2018-09-15T01:34:30.029Z,9.05
2018-09-15T01:35:36.300Z,8.75
2018-09-15T01:36:42.554Z,8.60
2018-09-15T01:37:48.781Z,8.70
2018-09-15T01:38:55.047Z,8.35
2018-09-15T01:40:01.289Z,10.10
2018-09-15T01:41:07.546Z,9.52
2018-09-15T01:42:13.778Z,9.07
2018-09-15T01:43:20.024Z,9.32
2018-09-15T01:44:25.950Z,8.75
2018-09-15T01:45:32.004Z,9.70
2018-09-15T01:46:38.242Z,9.15
2018-09-15T01:47:44.460Z,8.77
2018-09-15T01:48:50.367Z,9.18
2018-09-15T01:49:56.378Z,9.50
2018-09-15T01:51:02.606Z,9.15
2018-09-15T01:52:08.649Z,8.93
2018-09-15T01:53:14.902Z,7.97
2018-09-15T01:54:21.156Z,8.70
2018-09-15T01:55:27.609Z,8.25
2018-09-15T01:56:33.857Z,8.20
2018-09-15T01:57:39.820Z,9.23
2018-09-15T01:58:46.210Z,8.70
2018-09-15T01:59:52.436Z,8.35
2018-09-15T02:00:58.655Z,7.50
2018-09-15T02:02:04.687Z,8.52
2018-09-15T02:03:10.636Z,8.00
2018-09-15T02:04:16.881Z,8.70
2018-09-15T02:05:23.140Z,8.15
2018-09-15T02:06:29.405Z,7.93
2018-09-15T02:07:35.622Z,9.43
2018-09-15T02:08:41.508Z,8.43
2018-09-15T02:09:47.759Z,8.60
2018-09-15T02:10:53.974Z,7.50
2018-09-15T02:12:00.193Z,8.15
2018-09-15T02:13:06.394Z,7.25
2018-09-15T02:14:12.637Z,7.65
2018-09-15T02:15:18.878Z,8.30
2018-09-15T02:16:25.178Z,7.60
2018-09-15T02:17:31.658Z,8.15
2018-09-15T02:18:37.908Z,7.95
2018-09-15T02:19:44.162Z,8.90
2018-09-15T02:20:50.394Z,8.90
2018-09-15T02:21:56.681Z,8.68
2018-09-15T02:23:02.910Z,10.10
2018-09-15T02:24:09.390Z,9.57
2018-09-15T02:25:15.647Z,8.18
2018-09-15T02:26:21.886Z,10.45
2018-09-15T02:27:28.100Z,9.45
2018-09-15T02:28:34.340Z,9.05
2018-09-15T02:29:40.624Z,9.32
2018-09-15T02:30:46.848Z,9.85
2018-09-15T02:31:53.136Z,9.45
2018-09-15T02:32:59.360Z,9.27
2018-09-15T02:34:05.577Z,9.32
2018-09-15T02:35:11.888Z,9.20
2018-09-15T02:36:17.974Z,9.48
2018-09-15T02:37:24.295Z,9.50
2018-09-15T02:38:30.520Z,9.20
2018-09-15T02:39:36.808Z,9.20
2018-09-15T02:40:43.050Z,9.48
2018-09-15T02:41:49.287Z,9.20
2018-09-15T02:42:55.500Z,8.88
2018-09-15T02:44:01.728Z,9.45
2018-09-15T02:45:07.631Z,9.82
2018-09-15T02:46:13.919Z,10.00
2018-09-15T02:47:20.159Z,10.38
2018-09-15T02:48:26.418Z,9.30
2018-09-15T02:49:32.650Z,10.82
2018-09-15T02:50:38.955Z,9.45
2018-09-15T02:51:45.181Z,9.38
2018-09-15T02:52:51.420Z,10.00
2018-09-15T02:53:57.652Z,9.57
2018-09-15T02:55:03.567Z,9.55
2018-09-15T02:56:12.825Z,9.35
2018-09-15T02:57:19.044Z,9.00
2018-09-15T02:58:24.954Z,11.32
2018-09-15T02:59:31.177Z,9.80
2018-09-15T03:00:37.129Z,9.88
2018-09-15T03:01:43.052Z,9.70
2018-09-15T03:02:49.277Z,10.32
2018-09-15T03:03:55.488Z,9.95
2018-09-15T03:05:01.770Z,9.10
2018-09-15T03:06:08.030Z,10.02
2018-09-15T03:07:14.390Z,9.57
2018-09-15T03:08:20.648Z,9.20
2018-09-15T03:09:26.892Z,10.68
2018-09-15T03:10:33.198Z,9.80
2018-09-15T03:11:39.920Z,10.13
2018-09-15T03:12:46.237Z,10.20
2018-09-15T03:13:52.496Z,9.07
2018-09-15T03:14:58.743Z,9.15
2018-09-15T03:16:04.998Z,10.07
2018-09-15T03:17:11.241Z,10.05
2018-09-15T03:18:17.471Z,9.65
2018-09-15T03:19:24.145Z,10.20
2018-09-15T03:20:35.606Z,9.45
2018-09-15T03:21:41.593Z,8.98
2018-09-15T03:22:47.813Z,9.85
2018-09-15T03:23:54.082Z,9.63
2018-09-15T03:25:00.318Z,9.57
2018-09-15T03:26:06.356Z,9.52
2018-09-15T03:27:12.562Z,8.65
2018-09-15T03:28:18.800Z,10.05
2018-09-15T03:29:25.028Z,9.15
2018-09-15T03:30:31.317Z,10.18
2018-09-15T03:31:37.582Z,9.50
2018-09-15T03:32:43.839Z,9.45
2018-09-15T03:33:50.070Z,9.18
2018-09-15T03:34:56.304Z,10.05
2018-09-15T03:36:02.567Z,9.80
2018-09-15T03:37:08.804Z,10.38
2018-09-15T03:38:15.108Z,10.13
2018-09-15T03:39:21.340Z,10.85
2018-09-15T03:40:27.594Z,8.77
2018-09-15T03:41:33.852Z,10.02
2018-09-15T03:42:40.278Z,9.40
2018-09-15T03:43:46.520Z,8.98
2018-09-15T03:44:52.745Z,9.60
2018-09-15T03:45:59.000Z,9.38
2018-09-15T03:47:05.262Z,9.85
2018-09-15T03:48:11.527Z,10.38
2018-09-15T03:49:17.753Z,9.70
2018-09-15T03:50:24.007Z,9.02
2018-09-15T03:51:30.267Z,10.05
2018-09-15T03:52:36.476Z,9.15
2018-09-15T03:53:42.729Z,8.73
2018-09-15T03:54:54.092Z,8.90
2018-09-15T03:55:59.992Z,9.80
2018-09-15T03:57:05.881Z,9.48
2018-09-15T03:58:12.132Z,9.40
2018-09-15T03:59:18.360Z,9.30
2018-09-15T04:00:24.615Z,10.13
2018-09-15T04:01:30.875Z,10.05
2018-09-15T04:02:37.148Z,9.93
2018-09-15T04:03:50.327Z,9.80
2018-09-15T04:04:55.993Z,9.75
2018-09-15T04:06:02.243Z,10.50
2018-09-15T04:07:08.478Z,10.10
2018-09-15T04:08:14.705Z,10.35
2018-09-15T04:09:20.960Z,10.00
2018-09-15T04:10:27.223Z,10.40
2018-09-15T04:11:33.508Z,10.10
2018-09-15T04:12:39.719Z,9.55
2018-09-15T04:13:45.933Z,8.48
2018-09-15T04:14:52.163Z,8.90
2018-09-15T04:15:58.416Z,9.63
2018-09-15T04:17:04.686Z,8.85
2018-09-15T04:18:10.674Z,8.90
2018-09-15T04:19:16.899Z,9.55
2018-09-15T04:20:22.781Z,10.50
2018-09-15T04:21:29.040Z,9.70
2018-09-15T04:22:35.231Z,8.05
2018-09-15T04:23:41.485Z,9.10
2018-09-15T04:24:47.724Z,9.95
2018-09-15T04:25:53.935Z,9.52
2018-09-15T04:27:00.158Z,9.30
2018-09-15T04:28:06.385Z,9.32
2018-09-15T04:29:12.620Z,9.75
2018-09-15T04:30:18.859Z,9.65
2018-09-15T04:31:25.138Z,9.52
2018-09-15T04:32:31.395Z,8.98
2018-09-15T04:33:37.622Z,9.10
2018-09-15T04:34:44.257Z,9.55
2018-09-15T04:35:50.527Z,9.27
2018-09-15T04:36:56.778Z,10.18
2018-09-15T04:38:02.996Z,9.30
2018-09-15T04:39:08.925Z,10.00
2018-09-15T04:40:15.257Z,10.00
2018-09-15T04:41:21.521Z,9.55
2018-09-15T04:42:27.755Z,10.88
2018-09-15T04:43:33.992Z,10.05
2018-09-15T04:44:40.643Z,10.52
2018-09-15T04:45:46.961Z,11.88
2018-09-15T04:46:53.594Z,10.45
2018-09-15T04:48:00.676Z,11.18
2018-09-15T04:49:07.383Z,11.30
2018-09-15T04:50:13.667Z,11.60
2018-09-15T04:51:19.916Z,9.80
2018-09-15T04:52:26.162Z,11.00
2018-09-15T04:53:32.420Z,10.90
2018-09-15T04:54:38.643Z,10.90
2018-09-15T04:55:44.879Z,11.27
2018-09-15T04:56:51.195Z,12.52
2018-09-15T04:57:57.441Z,12.73
2018-09-15T04:59:03.307Z,11.73
2018-09-15T05:00:09.581Z,13.52
2018-09-15T05:01:15.517Z,12.52
2018-09-15T05:02:21.788Z,11.80
2018-09-15T05:03:27.838Z,12.73
2018-09-15T05:04:34.079Z,12.32
2018-09-15T05:05:40.316Z,12.93
2018-09-15T05:06:46.594Z,11.82
2018-09-15T05:07:52.908Z,13.48
2018-09-15T05:08:59.190Z,11.75
2018-09-15T05:10:06.426Z,12.60
2018-09-15T05:11:13.326Z,11.55
2018-09-15T05:12:19.605Z,12.70
2018-09-15T05:13:26.098Z,12.55
2018-09-15T05:14:32.351Z,12.80
2018-09-15T05:15:38.587Z,13.55
2018-09-15T05:16:44.885Z,13.32
2018-09-15T05:17:51.176Z,13.57
2018-09-15T05:18:57.434Z,13.62
2018-09-15T05:20:03.295Z,11.90
2018-09-15T05:21:09.571Z,13.25
2018-09-15T05:22:15.852Z,12.63
2018-09-15T05:23:23.356Z,11.77
2018-09-15T05:24:29.841Z,12.82
2018-09-15T05:25:36.153Z,13.25
2018-09-15T05:26:42.641Z,12.70
2018-09-15T05:27:49.076Z,13.50
2018-09-15T05:28:56.188Z,13.10
2018-09-15T05:30:02.517Z,13.50
2018-09-15T05:31:08.976Z,13.73
2018-09-15T05:32:15.407Z,12.90
2018-09-15T05:33:22.031Z,14.25
2018-09-15T05:34:28.601Z,12.90
2018-09-15T05:35:35.720Z,13.43
2018-09-15T05:36:43.101Z,12.50
2018-09-15T05:37:49.722Z,14.55
2018-09-15T05:38:55.959Z,14.07
2018-09-15T05:40:02.598Z,13.25
2018-09-15T05:41:10.473Z,13.48
2018-09-15T05:42:17.628Z,16.60
2018-09-15T05:43:24.003Z,14.80
2018-09-15T05:44:30.488Z,15.60
2018-09-15T05:45:36.931Z,16.15
2018-09-15T05:46:43.227Z,15.23
2018-09-15T05:47:49.648Z,13.75
2018-09-15T05:48:56.067Z,14.65
2018-09-15T05:50:02.509Z,15.52
2018-09-15T05:51:08.779Z,13.95
2018-09-15T05:52:15.199Z,13.98
2018-09-15T05:53:21.582Z,15.25
2018-09-15T05:54:27.959Z,15.65
2018-09-15T05:55:34.369Z,14.50
2018-09-15T05:56:41.164Z,14.80
2018-09-15T05:57:47.814Z,15.52
2018-09-15T05:58:54.117Z,14.87
2018-09-15T06:00:00.363Z,14.25
2018-09-15T06:01:07.759Z,15.00
2018-09-15T06:02:14.793Z,14.07
2018-09-15T06:03:21.439Z,16.10
2018-09-15T06:04:28.847Z,15.75
2018-09-15T06:05:35.432Z,14.98
2018-09-15T06:06:42.204Z,15.45
2018-09-15T06:07:48.878Z,16.00
2018-09-15T06:08:55.310Z,15.80
2018-09-15T06:10:02.364Z,17.40
2018-09-15T06:11:09.190Z,17.33
2018-09-15T06:12:16.934Z,16.05
2018-09-15T06:13:24.242Z,17.45
2018-09-15T06:14:31.656Z,16.42
2018-09-15T06:15:38.228Z,16.50
2018-09-15T06:16:45.444Z,16.08
2018-09-15T06:17:51.561Z,18.60
2018-09-15T06:18:59.450Z,18.08
2018-09-15T06:20:05.630Z,18.30
2018-09-15T06:21:12.007Z,16.98
2018-09-15T06:22:19.116Z,19.37
2018-09-15T06:23:27.747Z,18.60
2018-09-15T06:24:34.374Z,18.77
2018-09-15T06:25:40.721Z,19.67
2018-09-15T06:26:46.846Z,18.52
2018-09-15T06:27:53.645Z,18.85
2018-09-15T06:28:59.927Z,18.05
2018-09-15T06:30:06.005Z,19.17
2018-09-15T06:31:12.861Z,18.15
2018-09-15T06:32:19.414Z,18.90
2018-09-15T06:33:26.171Z,18.05
2018-09-15T06:34:33.071Z,18.77
2018-09-15T06:35:39.315Z,19.02
2018-09-15T06:36:47.934Z,20.35
2018-09-15T06:37:55.095Z,18.92
2018-09-15T06:39:02.666Z,18.67
2018-09-15T06:40:09.772Z,18.40
2018-09-15T06:41:17.310Z,18.23
2018-09-15T06:42:24.573Z,18.87
2018-09-15T06:43:31.849Z,18.52
2018-09-15T06:44:39.379Z,18.50
2018-09-15T06:45:46.946Z,19.73
2018-09-15T06:46:54.848Z,18.48
2018-09-15T06:48:02.168Z,17.48
2018-09-15T06:49:08.995Z,17.45
2018-09-15T06:50:16.567Z,17.70
2018-09-15T06:51:24.070Z,19.08
2018-09-15T06:52:31.589Z,18.87
2018-09-15T06:53:38.743Z,19.52
2018-09-15T06:54:47.023Z,17.55
2018-09-15T06:55:54.211Z,17.35
2018-09-15T06:57:01.626Z,17.00
2018-09-15T06:58:09.667Z,17.83
2018-09-15T06:59:16.589Z,17.75
2018-09-15T07:00:23.557Z,19.05
2018-09-15T07:01:30.909Z,18.42
2018-09-15T07:02:42.902Z,18.87
2018-09-15T07:03:50.882Z,17.08
2018-09-15T07:04:58.006Z,16.73
2018-09-15T07:06:05.656Z,16.67
2018-09-15T07:07:13.245Z,18.42
2018-09-15T07:08:20.577Z,18.80
2018-09-15T07:09:27.906Z,18.05
2018-09-15T07:10:35.146Z,17.37
2018-09-15T07:11:42.320Z,16.27
2018-09-15T07:12:49.541Z,18.60
2018-09-15T07:13:58.639Z,17.83
2018-09-15T07:15:05.064Z,16.73
2018-09-15T07:16:11.726Z,14.90
2018-09-15T07:17:18.497Z,16.77
2018-09-15T07:18:25.060Z,16.00
2018-09-15T07:19:31.879Z,15.98
2018-09-15T07:20:38.414Z,16.42
2018-09-15T07:21:45.200Z,16.67
2018-09-15T07:22:51.975Z,15.27
2018-09-15T07:23:59.033Z,14.73
2018-09-15T07:25:04.625Z,13.55
2018-09-15T07:26:10.938Z,15.35
2018-09-15T07:27:17.688Z,14.93
2018-09-15T07:28:24.624Z,13.35
2018-09-15T07:29:30.957Z,14.30
2018-09-15T07:30:37.466Z,16.12
2018-09-15T07:31:44.080Z,15.27
2018-09-15T07:32:51.194Z,13.55
2018-09-15T07:33:58.066Z,15.50
2018-09-15T07:35:04.797Z,16.40
2018-09-15T07:36:11.621Z,14.20
2018-09-15T07:37:18.038Z,12.95
2018-09-15T07:38:24.812Z,14.52
2018-09-15T07:39:31.721Z,13.82
2018-09-15T07:40:38.390Z,14.45
2018-09-15T07:41:45.607Z,13.75
2018-09-15T07:42:52.128Z,14.32
2018-09-15T07:43:59.058Z,14.32
2018-09-15T07:45:06.240Z,14.07
2018-09-15T07:46:12.882Z,13.20
2018-09-15T07:47:19.798Z,14.60
2018-09-15T07:48:26.656Z,14.80
2018-09-15T07:49:33.321Z,14.25
2018-09-15T07:50:39.558Z,13.57
2018-09-15T07:51:45.853Z,12.25
2018-09-15T07:52:52.313Z,12.27
2018-09-15T07:53:58.591Z,11.98
2018-09-15T07:55:04.609Z,13.00
2018-09-15T07:56:10.513Z,11.93
2018-09-15T07:57:16.731Z,12.95
2018-09-15T07:58:22.981Z,12.90
2018-09-15T07:59:29.248Z,11.85
2018-09-15T08:00:35.493Z,11.40
2018-09-15T08:01:41.740Z,11.45
2018-09-15T08:02:47.969Z,11.80
2018-09-15T08:03:53.994Z,11.07
2018-09-15T08:05:00.275Z,11.12
2018-09-15T08:06:06.136Z,10.18
2018-09-15T08:07:12.343Z,9.60
2018-09-15T08:08:19.728Z,9.63
2018-09-15T08:09:25.995Z,8.77
2018-09-15T08:10:32.224Z,8.90
2018-09-15T08:11:38.454Z,10.00
2018-09-15T08:12:44.672Z,8.93
2018-09-15T08:13:50.935Z,9.48
2018-09-15T08:14:57.268Z,9.40
2018-09-15T08:16:03.244Z,8.80
2018-09-15T08:17:09.110Z,9.27
2018-09-15T08:18:15.390Z,9.60
2018-09-15T08:19:21.319Z,8.80
2018-09-15T08:20:27.541Z,8.38
2018-09-15T08:21:33.773Z,8.40
2018-09-15T08:22:39.672Z,7.93
2018-09-15T08:23:45.881Z,9.48
2018-09-15T08:24:52.129Z,7.97
2018-09-15T08:25:58.347Z,7.30
2018-09-15T08:27:04.601Z,6.60
2018-09-15T08:28:10.854Z,6.80
2018-09-15T08:29:17.105Z,6.53
2018-09-15T08:30:23.342Z,6.50
2018-09-15T08:31:29.547Z,6.05
2018-09-15T08:32:35.760Z,7.57
2018-09-15T08:33:41.956Z,7.37
2018-09-15T08:34:48.220Z,6.78
2018-09-15T08:35:54.438Z,6.30
2018-09-15T08:37:00.676Z,6.00
2018-09-15T08:38:06.898Z,5.62
2018-09-15T08:39:13.147Z,5.57
2018-09-15T08:40:19.388Z,6.37
2018-09-15T08:41:25.451Z,6.57
2018-09-15T08:42:31.832Z,6.40
2018-09-15T08:43:38.066Z,6.53
2018-09-15T08:44:44.331Z,6.75
2018-09-15T08:45:50.577Z,6.00
2018-09-15T08:46:56.786Z,6.62
2018-09-15T08:48:03.026Z,5.87
2018-09-15T08:49:08.921Z,6.90
2018-09-15T08:50:14.904Z,6.40
2018-09-15T08:51:21.132Z,6.68
2018-09-15T08:52:27.401Z,7.53
2018-09-15T08:53:33.652Z,6.55
2018-09-15T08:54:39.621Z,7.15
2018-09-15T08:55:45.543Z,7.05
2018-09-15T08:56:51.760Z,7.22
2018-09-15T08:57:57.976Z,5.62
2018-09-15T08:59:03.830Z,6.78
2018-09-15T09:00:10.076Z,6.47
2018-09-15T09:01:16.292Z,6.55
2018-09-15T09:02:22.556Z,6.25
2018-09-15T09:03:28.799Z,7.43
2018-09-15T09:04:35.061Z,7.70
2018-09-15T09:05:41.373Z,7.05
2018-09-15T09:06:47.596Z,5.82
2018-09-15T09:07:53.819Z,6.80
2018-09-15T09:09:00.033Z,6.95
2018-09-15T09:10:05.644Z,5.25
2018-09-15T09:11:11.799Z,5.85
2018-09-15T09:12:18.237Z,6.00
2018-09-15T09:13:24.483Z,6.15
2018-09-15T09:14:30.705Z,5.85
2018-09-15T09:15:36.951Z,5.57
2018-09-15T09:16:43.162Z,6.40
2018-09-15T09:17:49.419Z,6.28
2018-09-15T09:18:55.802Z,6.45
2018-09-15T09:20:02.138Z,6.12
2018-09-15T09:21:08.137Z,5.85
2018-09-15T09:22:14.344Z,6.03
2018-09-15T09:23:20.564Z,4.90
2018-09-15T09:24:26.851Z,5.35
2018-09-15T09:25:33.116Z,5.10
2018-09-15T09:26:39.619Z,4.28
2018-09-15T09:27:46.056Z,5.28
2018-09-15T09:28:52.300Z,5.05
2018-09-15T09:29:58.529Z,5.25
2018-09-15T09:31:04.963Z,5.37
2018-09-15T09:32:11.191Z,5.20
2018-09-15T09:33:17.743Z,6.03
2018-09-15T09:34:24.094Z,6.00
2018-09-15T09:35:30.320Z,5.85
2018-09-15T09:36:36.535Z,5.68
2018-09-15T09:37:42.780Z,5.20
2018-09-15T09:38:48.992Z,4.93
2018-09-15T09:39:55.243Z,5.50
2018-09-15T09:41:01.445Z,5.00
2018-09-15T09:42:07.103Z,5.72
2018-09-15T09:43:13.096Z,5.05
2018-09-15T09:44:19.298Z,5.10
2018-09-15T09:45:25.545Z,5.30
2018-09-15T09:46:31.756Z,5.68
2018-09-15T09:47:37.962Z,4.60
2018-09-15T09:48:44.222Z,4.75
2018-09-15T09:49:50.502Z,5.00
2018-09-15T09:50:56.751Z,5.30
2018-09-15T09:52:02.980Z,5.12
2018-09-15T09:53:09.237Z,4.90
2018-09-15T09:54:15.528Z,3.60
2018-09-15T09:55:21.765Z,4.82
2018-09-15T09:56:28.044Z,4.40
2018-09-15T09:57:34.288Z,4.10
2018-09-15T09:58:40.479Z,4.43
2018-09-15T09:59:46.461Z,3.85
2018-09-15T10:00:52.477Z,3.87
2018-09-15T10:01:58.452Z,4.10
2018-09-15T10:03:04.666Z,4.00
2018-09-15T10:04:10.901Z,3.95
2018-09-15T10:05:17.142Z,4.32
2018-09-15T10:06:23.408Z,4.00
2018-09-15T10:07:29.673Z,3.72
2018-09-15T10:08:35.893Z,5.18
2018-09-15T10:09:42.120Z,4.25
2018-09-15T10:10:48.367Z,5.20
2018-09-15T10:11:54.599Z,4.30
2018-09-15T10:13:00.792Z,4.32
2018-09-15T10:14:06.631Z,4.00
2018-09-15T10:15:12.886Z,3.40
2018-09-15T10:16:19.156Z,3.42
2018-09-15T10:17:25.550Z,3.92
2018-09-15T10:18:31.570Z,3.97
2018-09-15T10:19:37.811Z,3.50
2018-09-15T10:20:44.069Z,3.55
2018-09-15T10:21:50.310Z,3.55
2018-09-15T10:22:56.572Z,3.58
2018-09-15T10:24:02.811Z,3.10
2018-09-15T10:25:09.012Z,4.12
2018-09-15T10:26:15.252Z,3.10
2018-09-15T10:27:21.465Z,3.90
2018-09-15T10:28:27.688Z,3.85
2018-09-15T10:29:33.924Z,3.45
2018-09-15T10:30:40.185Z,3.85
2018-09-15T10:31:46.441Z,2.90
2018-09-15T10:32:52.670Z,3.45
2018-09-15T10:33:58.872Z,3.40
2018-09-15T10:35:04.413Z,3.70
2018-09-15T10:36:10.656Z,4.07
2018-09-15T10:37:16.888Z,3.33
2018-09-15T10:38:23.138Z,3.30
2018-09-15T10:39:29.546Z,2.70
2018-09-15T10:40:35.819Z,3.00
2018-09-15T10:41:42.036Z,2.25
2018-09-15T10:42:48.257Z,2.10
2018-09-15T10:43:54.463Z,2.65
2018-09-15T10:45:00.671Z,2.75
2018-09-15T10:46:06.908Z,2.30
2018-09-15T10:47:13.124Z,2.50
2018-09-15T10:48:19.360Z,2.50
2018-09-15T10:49:25.591Z,3.08
2018-09-15T10:50:31.814Z,2.80
2018-09-15T10:51:38.069Z,3.20
2018-09-15T10:52:44.043Z,2.90
2018-09-15T10:53:50.053Z,3.25
2018-09-15T10:54:56.281Z,3.42
2018-09-15T10:56:02.540Z,2.55
2018-09-15T10:57:08.789Z,2.92
2018-09-15T10:58:15.047Z,2.30
2018-09-15T10:59:21.257Z,2.28
2018-09-15T11:00:27.578Z,2.70
2018-09-15T11:01:34.032Z,2.78
2018-09-15T11:02:40.254Z,2.50
2018-09-15T11:03:46.513Z,2.35
2018-09-15T11:04:52.749Z,2.90
2018-09-15T11:05:59.064Z,3.10
2018-09-15T11:07:05.094Z,3.72
2018-09-15T11:08:11.312Z,3.30
2018-09-15T11:09:17.505Z,2.65
2018-09-15T11:10:23.722Z,2.58
2018-09-15T11:11:29.952Z,2.40
2018-09-15T11:12:36.177Z,2.60
2018-09-15T11:13:42.482Z,2.17
2018-09-15T11:14:48.881Z,2.22
2018-09-15T11:15:55.176Z,2.12
2018-09-15T11:17:01.420Z,2.50
2018-09-15T11:18:07.667Z,2.17
2018-09-15T11:19:13.888Z,2.08
2018-09-15T11:20:20.087Z,2.60
2018-09-15T11:21:26.322Z,2.35
2018-09-15T11:22:32.558Z,3.08
2018-09-15T11:23:38.837Z,2.70
2018-09-15T11:24:45.053Z,2.10
2018-09-15T11:25:51.018Z,2.25
2018-09-15T11:26:57.276Z,2.10
2018-09-15T11:28:03.481Z,2.40
2018-09-15T11:29:09.770Z,2.55
2018-09-15T11:30:16.296Z,2.87
2018-09-15T11:31:22.537Z,2.10
2018-09-15T11:32:28.803Z,1.87
2018-09-15T11:33:35.008Z,1.95
2018-09-15T11:34:41.229Z,2.35
2018-09-15T11:35:47.428Z,2.00
2018-09-15T11:36:53.681Z,3.25
2018-09-15T11:37:59.891Z,1.87
2018-09-15T11:39:05.429Z,2.15
2018-09-15T11:40:12.163Z,1.80
2018-09-15T11:41:19.025Z,1.62
2018-09-15T11:42:25.371Z,1.65
2018-09-15T11:43:31.573Z,2.05
2018-09-15T11:44:37.804Z,2.03
2018-09-15T11:45:44.046Z,1.85
2018-09-15T11:46:50.305Z,2.12
2018-09-15T11:47:56.589Z,1.83
2018-09-15T11:49:03.021Z,1.90
2018-09-15T11:50:08.550Z,1.70
2018-09-15T11:51:14.765Z,2.00
2018-09-15T11:52:21.020Z,1.65
2018-09-15T11:53:27.265Z,1.58
2018-09-15T11:54:33.273Z,2.00
2018-09-15T11:55:39.272Z,1.85
2018-09-15T11:56:45.546Z,1.80
2018-09-15T11:57:51.778Z,1.80
2018-09-15T11:58:58.002Z,1.62
2018-09-15T12:00:03.680Z,1.50
2018-09-15T12:01:09.727Z,2.05
2018-09-15T12:02:15.761Z,1.60
2018-09-15T12:03:22.001Z,1.80
2018-09-15T12:04:28.225Z,1.77
2018-09-15T12:05:34.446Z,2.17
2018-09-15T12:06:40.323Z,1.70
2018-09-15T12:07:46.609Z,2.15
2018-09-15T12:08:53.029Z,1.60
2018-09-15T12:09:59.235Z,1.65
2018-09-15T12:11:05.515Z,2.08
2018-09-15T12:12:11.783Z,1.55
2018-09-15T12:13:18.037Z,1.75
2018-09-15T12:14:24.274Z,1.60
2018-09-15T12:15:30.491Z,2.20
2018-09-15T12:16:36.764Z,1.60
2018-09-15T12:17:42.983Z,1.50
2018-09-15T12:18:49.243Z,1.55
2018-09-15T12:19:55.479Z,1.55
2018-09-15T12:21:01.693Z,1.60
2018-09-15T12:22:07.931Z,1.50
2018-09-15T12:23:14.166Z,1.50
2018-09-15T12:24:20.460Z,2.05
2018-09-15T12:25:26.694Z,1.52
2018-09-15T12:26:32.917Z,1.50
2018-09-15T12:27:39.202Z,1.50
2018-09-15T12:28:45.716Z,2.03
2018-09-15T12:29:51.915Z,1.35
2018-09-15T12:30:58.143Z,1.45
2018-09-15T12:32:04.387Z,1.40
2018-09-15T12:33:10.615Z,1.60
2018-09-15T12:34:16.831Z,1.42
2018-09-15T12:35:23.109Z,1.40
2018-09-15T12:36:29.355Z,1.20
2018-09-15T12:37:35.639Z,1.50
2018-09-15T12:38:41.866Z,1.65
2018-09-15T12:39:48.102Z,1.45
2018-09-15T12:40:54.303Z,1.50
2018-09-15T12:42:00.610Z,1.50
2018-09-15T12:43:06.835Z,1.60
2018-09-15T12:44:18.363Z,1.50
2018-09-15T12:45:24.594Z,1.50
2018-09-15T12:46:30.840Z,1.65
2018-09-15T12:47:36.822Z,1.40
2018-09-15T12:48:43.071Z,1.77
2018-09-15T12:49:49.299Z,1.77
2018-09-15T12:50:55.200Z,1.90
2018-09-15T12:52:01.216Z,1.30
2018-09-15T12:53:07.280Z,1.52
2018-09-15T12:54:13.518Z,1.25
2018-09-15T12:55:19.780Z,1.40
2018-09-15T12:56:26.022Z,1.50
2018-09-15T12:57:32.267Z,1.42
2018-09-15T12:58:38.491Z,2.00
2018-09-15T12:59:44.699Z,1.33
2018-09-15T13:00:50.898Z,1.40
2018-09-15T13:01:57.097Z,1.70
2018-09-15T13:03:03.347Z,1.52
2018-09-15T13:04:09.567Z,1.25
2018-09-15T13:05:15.795Z,1.30
2018-09-15T13:06:22.032Z,1.80
2018-09-15T13:07:28.467Z,1.60
2018-09-15T13:08:34.680Z,1.62
2018-09-15T13:09:41.135Z,1.80
2018-09-15T13:10:47.337Z,1.73
2018-09-15T13:11:53.560Z,2.03
2018-09-15T13:12:59.791Z,1.40
2018-09-15T13:14:05.382Z,1.70
2018-09-15T13:15:11.655Z,1.92
2018-09-15T13:16:17.860Z,1.30
2018-09-15T13:17:23.859Z,1.52
2018-09-15T13:18:29.758Z,1.30
2018-09-15T13:19:36.008Z,1.62
2018-09-15T13:20:42.258Z,1.40
2018-09-15T13:21:48.477Z,1.77
2018-09-15T13:22:54.734Z,1.50
2018-09-15T13:24:00.972Z,1.40
2018-09-15T13:25:06.529Z,1.70
2018-09-15T13:26:12.813Z,1.60
2018-09-15T13:27:19.057Z,1.27
2018-09-15T13:28:25.318Z,1.50
2018-09-15T13:29:31.540Z,1.30
2018-09-15T13:30:37.953Z,1.33
2018-09-15T13:31:44.170Z,1.40
2018-09-15T13:32:50.403Z,1.35
2018-09-15T13:33:56.635Z,1.30
2018-09-15T13:35:02.834Z,1.30
2018-09-15T13:36:09.055Z,1.20
2018-09-15T13:37:15.291Z,1.20
2018-09-15T13:38:21.539Z,1.40
2018-09-15T13:39:27.830Z,1.20
2018-09-15T13:40:34.044Z,1.80
2018-09-15T13:41:40.248Z,1.30
2018-09-15T13:42:46.501Z,1.25
2018-09-15T13:43:52.748Z,1.83
2018-09-15T13:44:59.000Z,2.20
2018-09-15T13:46:04.669Z,3.30
2018-09-15T13:47:10.891Z,4.53
2018-09-15T13:48:17.156Z,2.05
2018-09-15T13:49:23.398Z,3.47
2018-09-15T13:50:29.668Z,2.53
2018-09-15T13:51:36.173Z,2.00
2018-09-15T13:52:42.210Z,2.40
2018-09-15T13:53:48.531Z,2.25
2018-09-15T13:54:54.790Z,1.77
2018-09-15T13:56:01.006Z,1.92
2018-09-15T13:57:07.264Z,2.10
2018-09-15T13:58:13.525Z,1.70
2018-09-15T13:59:19.412Z,1.90
2018-09-15T14:00:25.630Z,1.52
2018-09-15T14:01:31.863Z,1.10
2018-09-15T14:02:37.863Z,1.12
2018-09-15T14:03:44.119Z,1.60
2018-09-15T14:04:50.466Z,1.50
2018-09-15T14:05:56.813Z,1.40
2018-09-15T14:07:03.021Z,1.42
2018-09-15T14:08:09.325Z,1.52
2018-09-15T14:09:15.537Z,1.45
2018-09-15T14:10:21.759Z,1.45
2018-09-15T14:11:27.971Z,1.30
2018-09-15T14:12:34.191Z,1.58
2018-09-15T14:13:40.424Z,2.12
2018-09-15T14:14:46.635Z,1.35
2018-09-15T14:15:52.843Z,1.50
2018-09-15T14:16:58.805Z,1.40
2018-09-15T14:18:04.907Z,1.50
2018-09-15T14:19:10.884Z,1.87
2018-09-15T14:20:17.094Z,1.35
2018-09-15T14:21:23.330Z,1.00
2018-09-15T14:22:29.207Z,1.25
2018-09-15T14:23:35.448Z,1.33
2018-09-15T14:24:41.678Z,1.40
2018-09-15T14:25:47.922Z,1.23
2018-09-15T14:26:54.148Z,1.20
2018-09-15T14:28:00.374Z,1.17
2018-09-15T14:29:06.623Z,1.40
2018-09-15T14:30:12.848Z,1.70
2018-09-15T14:31:19.061Z,1.35
2018-09-15T14:32:25.271Z,1.15
2018-09-15T14:33:31.263Z,1.37
2018-09-15T14:34:37.530Z,1.17
2018-09-15T14:35:43.952Z,1.00